Time;durP1;ratioP1;P1;durP2;ratioP2;P2;SDS_P1;SDS_P2;PMS_P1;PMS_P2;Temp;Humidity;BMP_temperature;BMP_pressure;BME280_temperature;BME280_humidity;BME280_pressure;Samples;Min_cycle;Max_cycle;Signal;HPM_P1;HPM_P2
2021/05/12 00:01:26;;;;;;;6.63;4.85;;;18.80;94.90;;;;;;5092574;28;20070;-70
2021/05/12 00:04:10;;;;;;;5.20;4.70;;;18.80;94.90;;;;;;5055374;28;20453;-70
2021/05/12 00:06:54;;;;;;;5.17;4.03;;;18.70;95.00;;;;;;5082885;28;20119;-70
2021/05/12 00:09:38;;;;;;;4.30;3.42;;;18.70;95.00;;;;;;5056454;28;20400;-71
2021/05/12 00:12:23;;;;;;;5.55;3.97;;;18.70;94.90;;;;;;5062725;28;20040;-70
2021/05/12 00:15:10;;;;;;;6.65;4.45;;;18.70;94.90;;;;;;5063957;28;20043;-70
2021/05/12 00:17:55;;;;;;;4.93;4.10;;;18.70;94.80;;;;;;5073402;28;20090;-70
2021/05/12 00:20:40;;;;;;;6.40;4.40;;;18.70;94.80;;;;;;5070325;28;20559;-70
2021/05/12 00:23:28;;;;;;;6.05;4.18;;;18.70;94.70;;;;;;5073200;28;20078;-70
2021/05/12 00:26:12;;;;;;;5.70;4.57;;;18.60;94.70;;;;;;5074001;28;20399;-69
2021/05/12 00:28:56;;;;;;;5.67;4.67;;;18.60;94.60;;;;;;5072717;28;20035;-70
2021/05/12 00:31:41;;;;;;;7.80;5.57;;;18.50;94.50;;;;;;5070332;28;20266;-71
2021/05/12 00:34:25;;;;;;;6.28;5.20;;;18.50;94.60;;;;;;5075283;28;20081;-71
2021/05/12 00:37:09;;;;;;;7.07;5.10;;;18.40;94.60;;;;;;5065197;28;20074;-70
2021/05/12 00:39:53;;;;;;;9.20;7.13;;;18.40;94.70;;;;;;5080339;28;21665;-71
2021/05/12 00:42:37;;;;;;;8.57;6.70;;;18.40;94.70;;;;;;5072998;28;20551;-70
2021/05/12 00:45:22;;;;;;;8.53;6.50;;;18.40;94.70;;;;;;5074818;28;20031;-71
2021/05/12 00:48:07;;;;;;;9.95;6.72;;;18.30;94.80;;;;;;5072901;28;20036;-71
2021/05/12 00:50:51;;;;;;;8.65;6.93;;;18.30;94.90;;;;;;5074646;28;20046;-71
2021/05/12 00:53:35;;;;;;;9.07;7.32;;;18.20;94.90;;;;;;5072626;28;20558;-71
2021/05/12 00:56:19;;;;;;;11.70;7.30;;;18.20;94.80;;;;;;5071056;28;20121;-67
2021/05/12 00:59:03;;;;;;;10.97;7.10;;;18.20;94.70;;;;;;5071299;28;20548;-67
2021/05/12 01:01:47;;;;;;;8.23;6.63;;;18.10;94.60;;;;;;5052010;28;20064;-68
2021/05/12 01:04:32;;;;;;;11.23;6.70;;;18.10;94.60;;;;;;5055908;28;20044;-67
2021/05/12 01:07:17;;;;;;;;;;;18.10;94.60;;;;;;5075862;28;20043;-68
2021/05/12 01:10:01;;;;;;;11.55;6.43;;;18.10;94.30;;;;;;5081074;28;19962;-68
2021/05/12 01:12:45;;;;;;;8.55;6.13;;;18.00;94.30;;;;;;5072227;28;20098;-67
2021/05/12 01:15:29;;;;;;;10.30;6.00;;;18.00;94.30;;;;;;5070972;28;20040;-67
2021/05/12 01:18:17;;;;;;;7.75;5.18;;;18.00;94.30;;;;;;5071524;28;20043;-68
2021/05/12 01:21:04;;;;;;;7.82;5.22;;;18.00;94.20;;;;;;5069102;28;20069;-67
2021/05/12 01:23:49;;;;;;;7.13;5.25;;;18.00;94.20;;;;;;5071450;28;20090;-68
2021/05/12 01:26:34;;;;;;;7.35;5.25;;;17.90;94.10;;;;;;5070660;28;20510;-67
2021/05/12 01:29:18;;;;;;;7.80;5.80;;;17.90;94.10;;;;;;5067137;28;20048;-68
2021/05/12 01:32:05;;;;;;;7.60;5.23;;;17.90;94.00;;;;;;5072191;28;20035;-68
2021/05/12 01:34:49;;;;;;;12.82;5.28;;;17.80;94.00;;;;;;5072275;28;20047;-68
2021/05/12 01:37:35;;;;;;;11.30;5.53;;;17.80;93.90;;;;;;5092253;28;20035;-68
2021/05/12 01:40:19;;;;;;;8.43;5.10;;;17.80;93.80;;;;;;5076716;28;20032;-68
2021/05/12 01:43:04;;;;;;;9.48;5.25;;;17.80;93.80;;;;;;5090756;28;20127;-67
2021/05/12 01:45:49;;;;;;;7.17;5.47;;;17.70;93.80;;;;;;5081820;28;20721;-68
2021/05/12 01:48:33;;;;;;;6.50;5.03;;;17.70;93.90;;;;;;5090571;28;20039;-70
2021/05/12 01:51:17;;;;;;;7.40;5.00;;;17.70;93.90;;;;;;5069826;28;20046;-68
2021/05/12 01:54:04;;;;;;;9.30;6.15;;;17.60;94.00;;;;;;5056369;28;20490;-68
2021/05/12 01:56:47;;;;;;;11.90;6.55;;;17.70;94.00;;;;;;5091706;28;20081;-68
2021/05/12 01:59:31;;;;;;;7.67;5.60;;;17.70;94.10;;;;;;5072946;28;20068;-67
2021/05/12 02:02:15;;;;;;;7.43;5.40;;;17.60;94.00;;;;;;5078768;28;20106;-68
2021/05/12 02:04:59;;;;;;;8.53;5.43;;;17.60;94.00;;;;;;5075424;28;20403;-68
2021/05/12 02:07:44;;;;;;;6.93;4.80;;;17.60;94.10;;;;;;5075396;28;20048;-68
2021/05/12 02:10:28;;;;;;;9.60;5.45;;;17.60;94.00;;;;;;5079072;28;20047;-68
2021/05/12 02:13:13;;;;;;;6.72;4.65;;;17.50;93.80;;;;;;5068194;28;20036;-67
2021/05/12 02:15:59;;;;;;;;;;;17.50;93.70;;;;;;5065058;28;20136;-68
2021/05/12 02:18:43;;;;;;;7.05;4.68;;;17.50;93.60;;;;;;5068242;28;20383;-68
2021/05/12 02:21:27;;;;;;;6.10;4.67;;;17.50;93.50;;;;;;5084393;28;20131;-68
2021/05/12 02:24:11;;;;;;;7.03;4.80;;;17.50;93.50;;;;;;5074896;28;20035;-68
2021/05/12 02:26:55;;;;;;;7.93;5.10;;;17.50;93.50;;;;;;5061757;28;20035;-68
2021/05/12 02:29:39;;;;;;;6.90;4.90;;;17.50;93.50;;;;;;5075879;28;20036;-68
2021/05/12 02:32:23;;;;;;;7.47;5.07;;;17.40;93.40;;;;;;5084203;28;20070;-68
2021/05/12 02:35:09;;;;;;;7.30;4.75;;;17.40;93.40;;;;;;5079420;28;20051;-68
2021/05/12 02:37:53;;;;;;;8.23;5.00;;;17.40;93.50;;;;;;5074114;28;20423;-68
2021/05/12 02:40:38;;;;;;;8.10;5.27;;;17.40;93.50;;;;;;5069026;28;20802;-68
2021/05/12 02:43:21;;;;;;;9.52;5.05;;;17.30;93.40;;;;;;5075520;28;20285;-68
2021/05/12 02:46:06;;;;;;;9.43;5.20;;;17.30;93.40;;;;;;5063186;28;20031;-68
2021/05/12 02:48:49;;;;;;;8.63;5.18;;;17.40;93.40;;;;;;5083247;28;20051;-68
2021/05/12 02:51:33;;;;;;;9.52;5.07;;;17.30;93.40;;;;;;5073565;28;20063;-71
2021/05/12 02:54:19;;;;;;;6.18;5.00;;;17.20;93.40;;;;;;5074320;28;20059;-70
2021/05/12 02:57:04;;;;;;;6.78;5.20;;;17.20;93.50;;;;;;5074000;28;20086;-70
2021/05/12 02:59:49;;;;;;;5.45;3.83;;;17.20;93.60;;;;;;5076010;28;20078;-71
2021/05/12 03:02:33;;;;;;;7.45;5.07;;;17.10;93.50;;;;;;5079332;28;20146;-71
2021/05/12 03:05:18;;;;;;;9.18;4.90;;;17.10;93.60;;;;;;5066064;28;20065;-71
2021/05/12 03:08:03;;;;;;;7.70;5.03;;;17.10;93.70;;;;;;5071501;28;20526;-71
2021/05/12 03:10:47;;;;;;;6.95;5.07;;;17.10;93.70;;;;;;5065727;28;20040;-71
2021/05/12 03:13:32;;;;;;;6.72;5.80;;;17.00;93.60;;;;;;5054905;28;20035;-71
2021/05/12 03:16:16;;;;;;;7.93;4.88;;;17.10;93.60;;;;;;5079544;28;20032;-71
2021/05/12 03:19:00;;;;;;;9.50;5.20;;;17.10;93.70;;;;;;5086078;28;20433;-71
2021/05/12 03:21:44;;;;;;;7.13;5.30;;;17.00;93.60;;;;;;5083419;28;20114;-71
2021/05/12 03:24:28;;;;;;;8.07;4.97;;;17.10;93.90;;;;;;5058108;28;20024;-71
2021/05/12 03:27:12;;;;;;;8.18;5.30;;;17.10;93.60;;;;;;5074026;28;20039;-71
2021/05/12 03:29:56;;;;;;;8.23;4.95;;;17.10;93.70;;;;;;5072635;28;20384;-70
2021/05/12 03:32:40;;;;;;;7.43;4.50;;;17.00;93.60;;;;;;5072891;28;20506;-70
2021/05/12 03:35:25;;;;;;;6.25;4.25;;;17.00;93.60;;;;;;5080294;28;20039;-69
2021/05/12 03:38:11;;;;;;;8.18;4.90;;;16.90;93.60;;;;;;5054307;28;20032;-70
2021/05/12 03:40:55;;;;;;;7.53;4.72;;;16.90;93.60;;;;;;5061779;28;20140;-70
2021/05/12 03:43:40;;;;;;;5.23;4.10;;;16.90;93.70;;;;;;5054156;28;20035;-70
2021/05/12 03:46:23;;;;;;;5.45;4.35;;;16.90;93.70;;;;;;5075820;28;20530;-70
2021/05/12 03:49:07;;;;;;;7.03;4.22;;;16.80;93.70;;;;;;5075711;28;20071;-70
2021/05/12 03:51:51;;;;;;;5.78;4.63;;;16.90;93.80;;;;;;5059639;28;20107;-70
2021/05/12 03:54:35;;;;;;;6.03;4.15;;;16.80;93.50;;;;;;5068387;28;20392;-70
2021/05/12 03:57:19;;;;;;;4.22;3.25;;;16.90;93.50;;;;;;5073836;28;20511;-70
2021/05/12 04:00:05;;;;;;;5.57;3.30;;;16.90;93.40;;;;;;5070167;28;20186;-70
2021/05/12 04:02:50;;;;;;;4.70;3.60;;;16.90;93.30;;;;;;5073738;28;20039;-70
2021/05/12 04:05:34;;;;;;;5.63;4.03;;;16.90;93.30;;;;;;5073002;28;20115;-70
2021/05/12 04:08:18;;;;;;;6.25;3.40;;;16.80;93.20;;;;;;5090552;28;20123;-70
2021/05/12 04:11:02;;;;;;;9.50;3.70;;;16.90;93.30;;;;;;5066737;28;20087;-70
2021/05/12 04:13:46;;;;;;;4.47;3.23;;;16.90;93.20;;;;;;5075845;28;20119;-70
2021/05/12 04:16:31;;;;;;;4.63;2.92;;;16.90;93.10;;;;;;5042532;28;20083;-71
2021/05/12 04:19:15;;;;;;;;;;;16.90;93.00;;;;;;5070429;28;20035;-71
2021/05/12 04:21:59;;;;;;;4.80;3.47;;;16.90;92.90;;;;;;5053818;28;20121;-71
2021/05/12 04:24:44;;;;;;;6.45;3.33;;;16.90;93.00;;;;;;5069956;28;20031;-71
2021/05/12 04:27:29;;;;;;;4.88;3.05;;;16.80;93.00;;;;;;5073533;28;20059;-72
2021/05/12 04:30:15;;;;;;;6.55;2.90;;;16.80;93.00;;;;;;5080441;28;20035;-71
2021/05/12 04:33:00;;;;;;;6.75;3.78;;;16.90;93.20;;;;;;5084631;28;20039;-71
2021/05/12 04:35:44;;;;;;;6.88;3.63;;;16.90;92.90;;;;;;5068210;28;20058;-72
2021/05/12 04:38:28;;;;;;;7.05;3.60;;;16.90;92.80;;;;;;5080227;28;20035;-71
2021/05/12 04:41:12;;;;;;;5.47;3.47;;;16.90;93.00;;;;;;5071515;28;20055;-71
2021/05/12 04:43:56;;;;;;;7.80;3.72;;;16.90;92.70;;;;;;5074043;28;20089;-71
2021/05/12 04:46:43;;;;;;;5.97;3.50;;;17.00;92.80;;;;;;5072064;28;20499;-72
2021/05/12 04:49:29;;;;;;;6.15;3.60;;;17.00;92.80;;;;;;5051914;28;20047;-71
2021/05/12 04:52:14;;;;;;;6.60;3.35;;;17.00;92.80;;;;;;5057332;28;20055;-69
2021/05/12 04:54:58;;;;;;;5.78;3.47;;;17.00;92.70;;;;;;5075657;28;20046;-69
2021/05/12 04:57:42;;;;;;;7.10;4.18;;;17.10;92.50;;;;;;5086805;28;20039;-69
2021/05/12 05:00:27;;;;;;;6.97;3.80;;;17.10;92.40;;;;;;5070450;28;20564;-69
2021/05/12 05:03:11;;;;;;;7.20;3.72;;;17.10;92.30;;;;;;5072558;28;20116;-70
2021/05/12 05:05:55;;;;;;;6.47;3.42;;;17.10;92.20;;;;;;5073327;28;20038;-68
2021/05/12 05:08:39;;;;;;;6.22;3.40;;;17.20;92.20;;;;;;5056465;28;20068;-69
2021/05/12 05:11:23;;;;;;;7.47;3.83;;;17.20;92.10;;;;;;5065694;28;20407;-68
2021/05/12 05:14:07;;;;;;;5.82;3.75;;;17.20;92.10;;;;;;5079938;28;20046;-68
2021/05/12 05:16:51;;;;;;;7.47;3.78;;;17.20;92.10;;;;;;5071498;28;20052;-68
2021/05/12 05:19:35;;;;;;;6.90;4.07;;;17.30;92.10;;;;;;5070835;28;20167;-68
2021/05/12 05:22:20;;;;;;;4.47;3.73;;;17.30;92.00;;;;;;5072171;28;20094;-68
2021/05/12 05:25:06;;;;;;;4.72;3.80;;;17.30;92.00;;;;;;5063755;28;20316;-69
2021/05/12 05:27:50;;;;;;;4.70;3.50;;;17.30;91.90;;;;;;5089998;28;20124;-70
2021/05/12 05:30:34;;;;;;;5.45;3.70;;;17.30;91.90;;;;;;5077542;28;20023;-69
2021/05/12 05:33:04;;;;;;;7.47;3.33;;;17.30;91.90;;;;;;5054225;28;20052;-69
2021/05/12 05:35:47;;;;;;;5.75;4.03;;;17.30;91.90;;;;;;5058658;28;20036;-69
2021/05/12 05:38:31;;;;;;;4.57;3.72;;;17.30;91.80;;;;;;5082302;28;20035;-69
2021/05/12 05:41:17;;;;;;;6.32;3.75;;;17.30;91.70;;;;;;5071446;28;20042;-69
2021/05/12 05:44:02;;;;;;;4.75;3.17;;;17.30;91.80;;;;;;5080628;28;20031;-69
2021/05/12 05:46:46;;;;;;;;;;;17.30;91.80;;;;;;5072784;28;20254;-69
2021/05/12 05:49:31;;;;;;;6.85;3.33;;;17.30;91.70;;;;;;5072584;28;19915;-69
2021/05/12 05:52:15;;;;;;;;;;;17.30;91.70;;;;;;5067926;28;20055;-69
2021/05/12 05:55:00;;;;;;;5.78;3.75;;;17.30;91.60;;;;;;5052515;28;19961;-67
2021/05/12 05:57:45;;;;;;;7.15;3.33;;;17.30;91.60;;;;;;5069893;28;20442;-67
2021/05/12 06:00:29;;;;;;;6.50;3.53;;;17.30;91.60;;;;;;5067289;28;20169;-68
2021/05/12 06:03:13;;;;;;;6.70;3.97;;;17.40;91.60;;;;;;5057783;28;20043;-69
2021/05/12 06:05:57;;;;;;;5.93;3.63;;;17.40;91.50;;;;;;5081885;28;20544;-70
2021/05/12 06:08:41;;;;;;;8.10;3.73;;;17.50;91.50;;;;;;5060328;28;20420;-68
2021/05/12 06:11:25;;;;;;;8.00;4.20;;;17.50;91.50;;;;;;5085181;28;20324;-68
2021/05/12 06:14:09;;;;;;;8.90;4.23;;;17.50;91.30;;;;;;5077183;28;20596;-69
2021/05/12 06:16:54;;;;;;;5.22;4.03;;;17.60;91.30;;;;;;5078433;28;20093;-66
2021/05/12 06:19:38;;;;;;;7.93;4.55;;;17.60;91.20;;;;;;5055945;28;20956;-68
2021/05/12 06:22:22;;;;;;;5.93;3.90;;;17.70;91.10;;;;;;5070058;28;20483;-68
2021/05/12 06:25:07;;;;;;;5.10;4.37;;;17.70;90.90;;;;;;5072444;28;20075;-67
2021/05/12 06:27:51;;;;;;;6.10;4.68;;;17.80;90.90;;;;;;5070868;28;20039;-68
2021/05/12 06:30:16;;;;;;;10.55;4.88;;;17.80;90.90;;;;;;5072167;28;20041;-68
2021/05/12 06:32:43;;;;;;;8.02;5.38;;;17.80;90.80;;;;;;5071518;28;20021;-67
2021/05/12 06:35:09;;;;;;;7.57;4.88;;;17.90;90.70;;;;;;5069415;28;20116;-68
2021/05/12 06:37:35;;;;;;;7.53;4.70;;;18.00;90.60;;;;;;5070530;28;20576;-69
2021/05/12 06:40:00;;;;;;;5.35;4.80;;;17.90;90.50;;;;;;5069645;28;20537;-68
2021/05/12 06:42:26;;;;;;;7.28;4.82;;;17.90;90.60;;;;;;5069814;28;20032;-69
2021/05/12 06:44:52;;;;;;;8.40;4.97;;;17.80;90.60;;;;;;5073692;28;20028;-69
2021/05/12 06:47:17;;;;;;;7.88;4.90;;;17.80;90.80;;;;;;5070246;28;20064;-69
2021/05/12 06:49:43;;;;;;;9.55;5.95;;;17.80;90.90;;;;;;5069239;28;20504;-72
2021/05/12 06:52:08;;;;;;;11.05;4.75;;;17.90;90.90;;;;;;5070818;28;20029;-71
2021/05/12 06:54:34;;;;;;;6.68;4.18;;;17.90;90.90;;;;;;5070685;28;20064;-73
2021/05/12 06:56:59;;;;;;;9.18;4.15;;;17.90;90.90;;;;;;5084691;28;20025;-71
2021/05/12 06:59:24;;;;;;;10.55;4.53;;;17.90;90.90;;;;;;5069279;28;20029;-71
2021/05/12 07:01:52;;;;;;;7.88;4.50;;;17.90;90.90;;;;;;5069116;28;20048;-72
2021/05/12 07:04:17;;;;;;;9.95;4.78;;;17.90;90.90;;;;;;5072566;28;20032;-72
2021/05/12 07:06:43;;;;;;;7.10;4.90;;;17.90;91.00;;;;;;5074726;28;20044;-72
2021/05/12 07:09:27;;;;;;;7.10;5.17;;;17.90;90.90;;;;;;5062257;28;20086;-72
2021/05/12 07:12:11;;;;;;;5.63;4.47;;;17.90;90.80;;;;;;5069078;28;20498;-71
2021/05/12 07:14:55;;;;;;;8.10;4.67;;;17.90;90.70;;;;;;5066801;28;20086;-71
2021/05/12 07:17:42;;;;;;;8.55;5.20;;;18.00;90.70;;;;;;5072856;28;20073;-70
2021/05/12 07:20:26;;;;;;;9.98;5.85;;;18.00;90.60;;;;;;5060882;28;20617;-70
2021/05/12 07:23:18;;;;;;;7.30;5.33;;;18.00;90.40;;;;;;5071255;28;20040;-70
2021/05/12 07:25:44;;;;;;;7.13;5.25;;;18.00;90.30;;;;;;5063554;28;20082;-70
2021/05/12 07:28:09;;;;;;;10.52;5.88;;;18.10;90.30;;;;;;5072004;28;20025;-72
2021/05/12 07:30:35;;;;;;;10.52;5.97;;;18.10;90.20;;;;;;5067295;28;20400;-72
2021/05/12 07:33:19;;;;;;;8.10;5.93;;;18.10;90.20;;;;;;5073130;28;20056;-71
2021/05/12 07:36:03;;;;;;;8.63;7.00;;;18.00;90.10;;;;;;5069464;28;20039;-71
2021/05/12 07:38:47;;;;;;;12.63;7.30;;;18.10;90.00;;;;;;5063411;28;20515;-71
2021/05/12 07:41:16;;;;;;;11.02;6.32;;;18.10;90.00;;;;;;5064019;28;20044;-71
2021/05/12 07:44:01;;;;;;;11.68;6.85;;;18.10;90.10;;;;;;5073407;28;20067;-71
2021/05/12 07:46:45;;;;;;;;;;;18.10;89.90;;;;;;5073703;28;20046;-71
2021/05/12 07:49:29;;;;;;;11.45;7.82;;;18.20;89.70;;;;;;5071529;28;20033;-73
2021/05/12 07:52:15;;;;;;;11.38;7.53;;;18.20;89.50;;;;;;5072407;28;21327;-67
2021/05/12 07:54:53;;;;;;;11.00;7.68;;;18.20;89.30;;;;;;5053538;28;20032;-68
2021/05/12 07:57:19;;;;;;;9.68;7.13;;;18.30;89.40;;;;;;5071724;28;20016;-67
2021/05/12 07:59:44;;;;;;;11.73;8.45;;;18.20;89.50;;;;;;5045785;28;20090;-68
2021/05/12 08:02:10;;;;;;;13.50;9.45;;;18.20;89.30;;;;;;5066450;28;20124;-67
2021/05/12 08:04:36;;;;;;;11.88;9.10;;;18.20;89.20;;;;;;5072097;28;20021;-68
2021/05/12 08:07:01;;;;;;;13.13;8.65;;;18.10;89.40;;;;;;5083571;28;20028;-67
2021/05/12 08:09:27;;;;;;;11.13;8.52;;;18.10;89.90;;;;;;5077672;28;20072;-67
2021/05/12 08:11:53;;;;;;;10.65;7.60;;;18.20;90.00;;;;;;5073037;28;20033;-68
2021/05/12 08:14:19;;;;;;;9.95;7.75;;;18.20;89.70;;;;;;5071685;28;20047;-68
2021/05/12 08:16:45;;;;;;;15.88;9.32;;;18.20;89.50;;;;;;5064192;28;20540;-68
2021/05/12 08:19:11;;;;;;;12.80;9.05;;;18.20;89.30;;;;;;5052931;28;20028;-67
2021/05/12 08:21:37;;;;;;;12.75;8.88;;;18.30;89.30;;;;;;5066600;28;20083;-66
2021/05/12 08:24:21;;;;;;;12.10;8.88;;;18.30;89.00;;;;;;5066992;28;20031;-67
2021/05/12 08:27:06;;;;;;;14.87;9.60;;;18.30;89.10;;;;;;5072029;28;20113;-69
2021/05/12 08:29:50;;;;;;;13.07;8.63;;;18.30;89.30;;;;;;5073340;28;20116;-68
2021/05/12 08:32:35;;;;;;;16.90;10.00;;;18.30;89.20;;;;;;5056894;28;20044;-68
2021/05/12 08:35:19;;;;;;;14.50;9.77;;;18.30;89.00;;;;;;5072612;28;20085;-69
2021/05/12 08:38:03;;;;;;;13.80;9.45;;;18.20;89.40;;;;;;5072174;28;20044;-67
2021/05/12 08:40:49;;;;;;;14.25;9.60;;;18.30;89.50;;;;;;5071712;28;20078;-68
2021/05/12 08:43:35;;;;;;;14.48;10.18;;;18.20;89.50;;;;;;5072042;28;20074;-68
2021/05/12 08:46:19;;;;;;;12.25;9.43;;;18.30;89.50;;;;;;5072817;28;20387;-69
2021/05/12 08:49:03;;;;;;;13.38;9.90;;;18.20;89.40;;;;;;5070451;28;20384;-68
2021/05/12 08:51:48;;;;;;;16.10;10.63;;;18.20;89.60;;;;;;5069516;28;20100;-68
2021/05/12 08:54:34;;;;;;;16.45;12.52;;;18.20;89.60;;;;;;5072895;28;20063;-68
2021/05/12 08:57:18;;;;;;;14.40;10.02;;;18.10;89.70;;;;;;5072605;28;20391;-68
2021/05/12 09:00:05;;;;;;;14.50;11.00;;;18.20;89.80;;;;;;5072082;28;20062;-69
2021/05/12 09:02:50;;;;;;;14.63;10.18;;;18.20;89.80;;;;;;5062021;28;20804;-68
2021/05/12 09:05:34;;;;;;;;;;;18.20;90.00;;;;;;5067111;28;20039;-68
2021/05/12 09:08:18;;;;;;;13.32;10.25;;;18.20;89.80;;;;;;5071212;28;19914;-68
2021/05/12 09:10:44;;;;;;;15.27;9.80;;;18.20;89.90;;;;;;5054333;28;20036;-68
2021/05/12 09:13:37;;;;;;;14.00;9.55;;;18.20;90.10;;;;;;5073704;28;20054;-68
2021/05/12 09:16:27;;;;;;;16.27;10.60;;;18.20;90.00;;;;;;5062591;28;20152;-67
2021/05/12 09:19:13;;;;;;;15.85;11.10;;;18.20;90.00;;;;;;5070724;28;20537;-68
2021/05/12 09:22:01;;;;;;;15.10;10.77;;;18.20;90.10;;;;;;5068678;28;20093;-67
2021/05/12 09:24:41;;;;;;;16.52;11.27;;;18.20;90.20;;;;;;5075235;28;20129;-68
2021/05/12 09:27:15;;;;;;;16.98;11.73;;;18.20;90.20;;;;;;5071494;28;20229;-68
2021/05/12 09:29:42;;;;;;;18.27;11.05;;;18.30;90.00;;;;;;5070560;28;20051;-68
2021/05/12 09:32:12;;;;;;;20.75;12.05;;;18.30;90.00;;;;;;5070941;28;20040;-68
2021/05/12 09:35:03;;;;;;;15.77;10.50;;;18.40;90.00;;;;;;5069858;28;20094;-67
2021/05/12 09:37:39;;;;;;;12.68;9.75;;;18.50;90.00;;;;;;5053906;28;20126;-69
2021/05/12 09:40:26;;;;;;;14.52;10.82;;;18.50;89.90;;;;;;5068374;28;20028;-67
2021/05/12 09:42:58;;;;;;;17.23;10.93;;;18.60;89.90;;;;;;5054918;28;20488;-67
2021/05/12 09:45:43;;;;;;;17.92;12.63;;;18.60;89.40;;;;;;5068584;28;20393;-68
2021/05/12 09:48:27;;;;;;;14.27;10.68;;;18.70;89.20;;;;;;5071105;28;20035;-66
2021/05/12 09:51:18;;;;;;;16.92;11.55;;;18.70;89.00;;;;;;5069098;28;20064;-66
2021/05/12 09:54:17;;;;;;;17.48;11.48;;;18.70;88.70;;;;;;5071357;28;20123;-67
2021/05/12 09:57:02;;;;;;;17.27;11.68;;;18.80;88.40;;;;;;5070809;28;20034;-66
2021/05/12 09:59:46;;;;;;;19.63;12.00;;;18.70;88.30;;;;;;5059546;28;20117;-67
2021/05/12 10:02:44;;;;;;;19.23;12.10;;;18.60;88.60;;;;;;5068205;28;20044;-67
2021/05/12 10:05:50;;;;;;;16.23;10.77;;;18.70;88.80;;;;;;5061255;28;20517;-68
2021/05/12 10:08:36;;;;;;;14.13;10.70;;;18.60;88.70;;;;;;5051734;28;20028;-67
2021/05/12 10:11:21;;;;;;;14.82;10.90;;;18.60;89.10;;;;;;5065814;28;20051;-68
2021/05/12 10:13:46;;;;;;;15.65;11.77;;;18.60;89.00;;;;;;5082998;28;20024;-66
2021/05/12 10:16:31;;;;;;;16.83;11.00;;;18.70;89.10;;;;;;5071105;28;20051;-67
2021/05/12 10:19:15;;;;;;;17.13;11.32;;;18.70;89.00;;;;;;5070421;28;20082;-67
2021/05/12 10:22:01;;;;;;;20.20;11.37;;;18.70;89.10;;;;;;5070187;28;20039;-67
2021/05/12 10:24:48;;;;;;;14.30;10.32;;;18.70;88.80;;;;;;5065226;28;20048;-67
2021/05/12 10:27:17;;;;;;;16.65;12.55;;;18.70;88.70;;;;;;5072049;28;20078;-67
2021/05/12 10:30:01;;;;;;;15.75;10.52;;;18.70;88.90;;;;;;5070013;28;20028;-67
2021/05/12 10:33:11;;;;;;;15.52;11.20;;;18.70;89.00;;;;;;5060950;28;20083;-67
2021/05/12 10:35:35;;;;;;;15.10;10.60;;;18.70;88.90;;;;;;5063719;28;20037;-67
2021/05/12 10:38:37;;;;;;;16.42;10.57;;;18.70;89.30;;;;;;5069753;28;20093;-66
2021/05/12 10:41:46;;;;;;;15.85;11.23;;;18.80;89.30;;;;;;5070334;28;20043;-67
2021/05/12 10:44:40;;;;;;;15.38;10.95;;;19.00;89.20;;;;;;5074242;28;20066;-67
2021/05/12 10:47:37;;;;;;;16.67;11.38;;;19.00;89.20;;;;;;5066457;28;20098;-66
2021/05/12 10:50:21;;;;;;;17.58;11.75;;;19.10;88.90;;;;;;5060952;28;20059;-67
2021/05/12 10:53:21;;;;;;;17.77;11.47;;;19.20;89.20;;;;;;5074447;28;20522;-67
2021/05/12 10:56:07;;;;;;;17.33;12.35;;;19.20;88.60;;;;;;5073284;28;20085;-67
2021/05/12 10:58:38;;;;;;;18.98;12.65;;;19.20;88.10;;;;;;5074302;28;20028;-67
2021/05/12 11:01:24;;;;;;;17.48;12.38;;;19.30;87.70;;;;;;5076890;28;20561;-66
2021/05/12 11:04:08;;;;;;;15.57;11.30;;;19.20;87.10;;;;;;5086012;28;20123;-66
2021/05/12 11:06:53;;;;;;;15.93;11.73;;;19.20;87.50;;;;;;5074143;28;20044;-66
2021/05/12 11:09:45;;;;;;;;;;;19.20;87.60;;;;;;5074130;28;20546;-66
2021/05/12 11:12:34;;;;;;;16.42;12.10;;;19.20;88.00;;;;;;5055036;28;20424;-66
2021/05/12 11:15:18;;;;;;;20.05;11.50;;;19.20;87.90;;;;;;5069258;28;20058;-67
2021/05/12 11:18:02;;;;;;;18.90;12.20;;;19.20;87.90;;;;;;5074903;28;20063;-67
2021/05/12 11:20:46;;;;;;;19.77;11.93;;;19.20;87.30;;;;;;5043890;28;20055;-67
2021/05/12 11:23:30;;;;;;;18.53;11.47;;;19.30;87.00;;;;;;5077987;28;20043;-67
2021/05/12 11:26:25;;;;;;;18.23;12.73;;;19.10;87.00;;;;;;5077993;28;20270;-67
2021/05/12 11:32:17;;;;;;;18.95;11.65;;;19.00;87.50;;;;;;5074655;28;20047;-66
2021/05/12 11:35:11;;;;;;;19.98;12.18;;;19.00;87.80;;;;;;5075295;28;20456;-66
2021/05/12 11:37:55;;;;;;;17.55;11.82;;;19.10;88.20;;;;;;5074611;28;20448;-67
2021/05/12 11:40:39;;;;;;;18.10;12.07;;;19.00;88.30;;;;;;5072663;28;20040;-67
2021/05/12 11:43:31;;;;;;;21.30;11.80;;;19.10;88.10;;;;;;5074928;28;20070;-66
2021/05/12 11:46:25;;;;;;;18.85;12.63;;;19.00;88.30;;;;;;5073574;28;20094;-66
2021/05/12 11:49:12;;;;;;;18.38;12.15;;;18.90;88.50;;;;;;5073594;28;20027;-67
2021/05/12 11:52:00;;;;;;;19.00;12.45;;;18.90;88.70;;;;;;5073999;28;20166;-67
2021/05/12 11:54:44;;;;;;;17.85;11.98;;;18.80;88.80;;;;;;5072453;28;20082;-66
2021/05/12 11:57:28;;;;;;;17.17;11.70;;;18.90;89.20;;;;;;5073876;28;20438;-66
2021/05/12 12:00:19;;;;;;;18.37;12.70;;;18.90;88.80;;;;;;5072698;28;20055;-66
2021/05/12 12:03:08;;;;;;;20.10;14.65;;;18.90;88.60;;;;;;5072953;28;20642;-66
2021/05/12 12:06:03;;;;;;;20.73;13.10;;;18.70;88.90;;;;;;5072725;28;20032;-67
2021/05/12 12:08:47;;;;;;;16.58;12.07;;;18.70;89.30;;;;;;5073409;28;20046;-66
2021/05/12 12:11:33;;;;;;;18.77;12.63;;;18.70;89.20;;;;;;5057071;28;20032;-67
2021/05/12 12:14:17;;;;;;;17.55;12.32;;;18.70;89.60;;;;;;5059269;28;20121;-67
2021/05/12 12:17:08;;;;;;;19.10;12.77;;;18.70;89.60;;;;;;5067687;28;20036;-67
2021/05/12 12:19:52;;;;;;;19.40;12.05;;;18.80;89.70;;;;;;5069107;28;20280;-67
2021/05/12 12:22:47;;;;;;;17.07;12.30;;;18.80;89.50;;;;;;5093532;28;20502;-67
2021/05/12 12:25:52;;;;;;;17.88;12.23;;;18.80;89.60;;;;;;5082460;28;20127;-67
2021/05/12 12:28:36;;;;;;;19.13;12.75;;;18.90;89.70;;;;;;5066237;28;20098;-67
2021/05/12 12:31:02;;;;;;;18.48;12.65;;;18.90;89.50;;;;;;5074966;28;20024;-66
2021/05/12 12:34:17;;;;;;;22.10;12.07;;;18.90;89.40;;;;;;5073398;28;20072;-66
2021/05/12 12:37:04;;;;;;;18.33;13.10;;;18.90;89.00;;;;;;5071865;28;20108;-66
2021/05/12 12:42:49;;;;;;;14.80;11.02;;;18.80;89.40;;;;;;5071192;28;20519;-66
2021/05/12 12:45:35;;;;;;;17.40;12.00;;;18.70;90.00;;;;;;5072547;28;20035;-66
2021/05/12 12:48:24;;;;;;;15.05;11.77;;;18.70;90.00;;;;;;5071917;28;20230;-67
2021/05/12 12:51:08;;;;;;;18.58;12.65;;;18.70;90.00;;;;;;5071124;28;20160;-66
2021/05/12 12:53:55;;;;;;;16.37;10.63;;;18.70;90.00;;;;;;5074100;28;20116;-67
2021/05/12 12:56:50;;;;;;;18.42;12.30;;;18.60;90.10;;;;;;5071941;28;20051;-66
2021/05/12 12:59:54;;;;;;;15.77;11.85;;;18.60;90.20;;;;;;5071072;28;22336;-67
2021/05/12 13:02:40;;;;;;;17.25;12.45;;;18.50;90.40;;;;;;5086128;28;20043;-67
2021/05/12 13:05:26;;;;;;;17.52;13.30;;;18.50;90.50;;;;;;5070563;28;20035;-67
2021/05/12 13:08:22;;;;;;;18.92;13.25;;;18.40;90.50;;;;;;5071747;28;20063;-66
2021/05/12 13:11:14;;;;;;;17.23;11.55;;;18.40;90.70;;;;;;5084987;28;20081;-67
2021/05/12 13:14:03;;;;;;;20.40;12.23;;;18.40;90.80;;;;;;5067471;28;20097;-66
2021/05/12 13:16:33;;;;;;;16.85;11.68;;;18.40;90.70;;;;;;5070694;28;20016;-67
2021/05/12 13:19:06;;;;;;;19.38;12.65;;;18.40;90.90;;;;;;5071251;28;20145;-67
2021/05/12 13:21:39;;;;;;;21.63;13.55;;;18.40;90.90;;;;;;5069347;28;20045;-67
2021/05/12 13:24:21;;;;;;;15.68;11.43;;;18.40;91.00;;;;;;5071284;28;20115;-67
2021/05/12 13:26:55;;;;;;;14.90;10.48;;;18.40;90.90;;;;;;5090908;28;20047;-66
2021/05/12 13:29:20;;;;;;;15.30;10.48;;;18.30;91.00;;;;;;5039549;28;20025;-68
2021/05/12 13:31:48;;;;;;;14.70;9.52;;;18.30;91.10;;;;;;5088224;28;20031;-67
2021/05/12 13:34:16;;;;;;;16.73;10.38;;;18.30;91.10;;;;;;5075516;28;20031;-66
2021/05/12 13:36:47;;;;;;;13.98;10.07;;;18.30;91.30;;;;;;5074522;28;20092;-65
2021/05/12 13:39:14;;;;;;;12.95;8.75;;;18.30;91.10;;;;;;5033670;28;20031;-67
2021/05/12 13:41:39;;;;;;;10.50;8.00;;;18.30;91.30;;;;;;5069178;28;20093;-67
2021/05/12 13:44:24;;;;;;;11.68;8.73;;;18.30;91.20;;;;;;5068308;28;20027;-67
2021/05/12 13:47:08;;;;;;;13.73;9.07;;;18.30;91.10;;;;;;5060421;28;20043;-67
2021/05/12 13:49:52;;;;;;;13.63;8.10;;;18.20;91.10;;;;;;5070065;28;20105;-67
2021/05/12 13:52:53;;;;;;;10.15;7.15;;;18.20;91.40;;;;;;5067387;28;20498;-67
2021/05/12 13:58:27;;;;;;;7.53;6.07;;;18.10;91.50;;;;;;5051512;28;20128;-67
2021/05/12 14:03:37;;;;;;;8.68;5.65;;;18.00;91.50;;;;;;5070663;28;20287;-66
2021/05/12 14:06:03;;;;;;;9.25;6.38;;;18.00;91.60;;;;;;5085168;28;20024;-67
2021/05/12 14:08:29;;;;;;;10.52;6.47;;;18.00;91.80;;;;;;5077710;28;20051;-66
2021/05/12 14:10:54;;;;;;;9.70;6.22;;;18.00;91.90;;;;;;5075019;28;20064;-67